Time;durP1;ratioP1;P1;durP2;ratioP2;P2;SDS_P1;SDS_P2;PMS_P1;PMS_P2;Temp;Humidity;BMP_temperature;BMP_pressure;BME280_temperature;BME280_humidity;BME280_pressure;Samples;Min_cycle;Max_cycle;Signal;HPM_P1;HPM_P2
2024/04/23 00:01:51;;;;;;;0.20;0.10;;;;;;;;;;5356675;26;20460;-79
2024/04/23 00:04:17;;;;;;;0.20;0.10;;;;;;;;;;5362441;26;20000;-78
2024/04/23 00:06:53;;;;;;;0.20;0.10;;;;;;;;;;5385555;26;20458;-78
2024/04/23 00:09:19;;;;;;;0.20;0.10;;;;;;;;;;5389387;26;20015;-78
2024/04/23 00:11:46;;;;;;;0.20;0.10;;;;;;;;;;5356169;26;20018;-79
2024/04/23 00:14:12;;;;;;;0.20;0.10;;;;;;;;;;5381704;26;20430;-77
2024/04/23 00:16:38;;;;;;;0.20;0.10;;;;;;;;;;5363412;26;20041;-78
2024/04/23 00:19:04;;;;;;;0.20;0.10;;;;;;;;;;5369318;26;22168;-78
2024/04/23 00:21:30;;;;;;;0.20;0.10;;;;;;;;;;5362746;26;20380;-78
2024/04/23 00:23:56;;;;;;;0.20;0.10;;;;;;;;;;5387470;26;20028;-79
2024/04/23 00:26:23;;;;;;;0.20;0.15;;;;;;;;;;5380550;26;20000;-78
2024/04/23 00:28:49;;;;;;;0.20;0.10;;;;;;;;;;5388902;26;20058;-78
2024/04/23 00:31:15;;;;;;;0.20;0.10;;;;;;;;;;5375678;26;20008;-79
2024/04/23 00:33:41;;;;;;;0.20;0.10;;;;;;;;;;5358041;26;20008;-78
2024/04/23 00:36:07;;;;;;;0.20;0.00;;;;;;;;;;5386661;26;20675;-79
2024/04/23 00:38:33;;;;;;;0.20;0.10;;;;;;;;;;5362956;26;20010;-78
2024/04/23 00:41:00;;;;;;;0.20;0.10;;;;;;;;;;5388554;26;20518;-79
2024/04/23 00:43:26;;;;;;;0.20;0.10;;;;;;;;;;5378310;26;19996;-78
2024/04/23 00:45:55;;;;;;;0.20;0.10;;;;;;;;;;5389881;26;19996;-79
2024/04/23 00:48:21;;;;;;;0.20;0.10;;;;;;;;;;5389718;26;19999;-79
2024/04/23 00:50:47;;;;;;;0.20;0.10;;;;;;;;;;5387753;26;20019;-78
2024/04/23 00:53:14;;;;;;;0.20;0.00;;;;;;;;;;5385820;26;19996;-79
2024/04/23 00:55:41;;;;;;;2.08;0.30;;;;;;;;;;5362520;26;20012;-79
2024/04/23 00:58:07;;;;;;;0.20;0.10;;;;;;;;;;5384889;26;20011;-78
2024/04/23 01:00:33;;;;;;;0.20;0.10;;;;;;;;;;5358658;26;19996;-78
2024/04/23 01:02:59;;;;;;;0.25;0.10;;;;;;;;;;5365314;26;19999;-77
2024/04/23 01:05:25;;;;;;;0.20;0.10;;;;;;;;;;5393882;26;20001;-78
2024/04/23 01:07:51;;;;;;;0.20;0.00;;;;;;;;;;5365898;26;20007;-77
2024/04/23 01:10:17;;;;;;;0.20;0.10;;;;;;;;;;5384605;26;20028;-78
2024/04/23 01:12:44;;;;;;;0.20;0.10;;;;;;;;;;5363302;26;20562;-78
2024/04/23 01:15:10;;;;;;;0.20;0.10;;;;;;;;;;5387219;26;20011;-78
2024/04/23 01:17:40;;;;;;;0.20;0.10;;;;;;;;;;5358713;26;19996;-79
2024/04/23 01:20:11;;;;;;;0.20;0.10;;;;;;;;;;5391117;26;20344;-77
2024/04/23 01:22:46;;;;;;;0.20;0.10;;;;;;;;;;5360385;26;20044;-79
2024/04/23 01:25:18;;;;;;;0.20;0.10;;;;;;;;;;5387037;26;20014;-78
2024/04/23 01:27:45;;;;;;;0.20;0.10;;;;;;;;;;5359308;26;20099;-78
2024/04/23 01:30:11;;;;;;;0.20;0.10;;;;;;;;;;5384854;26;20000;-78
2024/04/23 01:32:39;;;;;;;0.20;0.10;;;;;;;;;;5378431;26;20031;-77
2024/04/23 01:35:25;;;;;;;0.20;0.10;;;;;;;;;;5345390;26;20001;-77
2024/04/23 01:37:52;;;;;;;0.20;0.10;;;;;;;;;;5386244;26;20012;-78
2024/04/23 01:40:19;;;;;;;0.20;0.10;;;;;;;;;;5361688;26;20440;-78
2024/04/23 01:42:46;;;;;;;0.20;0.10;;;;;;;;;;5360064;26;20015;-77
2024/04/23 01:45:15;;;;;;;0.20;0.10;;;;;;;;;;5389334;26;20018;-78
2024/04/23 01:47:45;;;;;;;0.20;0.10;;;;;;;;;;5396614;26;20003;-78
2024/04/23 01:50:12;;;;;;;0.20;0.10;;;;;;;;;;5391065;26;19996;-78
2024/04/23 01:52:38;;;;;;;0.20;0.10;;;;;;;;;;5362938;26;20007;-77
2024/04/23 01:55:04;;;;;;;0.20;0.10;;;;;;;;;;5394300;26;20115;-78
2024/04/23 01:57:30;;;;;;;0.20;0.10;;;;;;;;;;5362169;26;20022;-79
2024/04/23 02:00:05;;;;;;;0.20;0.10;;;;;;;;;;5359329;26;20049;-77
2024/04/23 02:02:31;;;;;;;0.20;0.10;;;;;;;;;;5360454;26;20008;-79
2024/04/23 02:04:58;;;;;;;0.20;0.10;;;;;;;;;;5387461;26;19996;-78
2024/04/23 02:07:25;;;;;;;0.20;0.10;;;;;;;;;;5362480;26;20000;-78
2024/04/23 02:09:51;;;;;;;0.20;0.00;;;;;;;;;;5383194;26;20614;-78
2024/04/23 02:12:17;;;;;;;0.20;0.10;;;;;;;;;;5361043;26;20347;-78
2024/04/23 02:14:44;;;;;;;0.20;0.10;;;;;;;;;;5352239;26;20000;-77
2024/04/23 02:17:30;;;;;;;0.20;0.10;;;;;;;;;;5372141;26;20027;-78
2024/04/23 02:19:56;;;;;;;0.20;0.00;;;;;;;;;;5394974;26;20018;-79
2024/04/23 02:22:22;;;;;;;0.30;0.20;;;;;;;;;;5361052;26;20016;-78
2024/04/23 02:24:49;;;;;;;0.20;0.10;;;;;;;;;;5381792;26;20000;-78
2024/04/23 02:27:30;;;;;;;0.20;0.10;;;;;;;;;;5366192;26;20474;-78
2024/04/23 02:29:57;;;;;;;0.20;0.10;;;;;;;;;;5393379;26;19999;-78
2024/04/23 02:32:23;;;;;;;0.20;0.10;;;;;;;;;;5357953;26;20448;-77
2024/04/23 02:34:49;;;;;;;0.25;0.10;;;;;;;;;;5363967;26;20019;-78
2024/04/23 02:37:15;;;;;;;0.20;0.10;;;;;;;;;;5367599;26;20000;-78
2024/04/23 02:39:41;;;;;;;0.20;0.10;;;;;;;;;;5389302;26;20008;-79
2024/04/23 02:42:07;;;;;;;0.20;0.10;;;;;;;;;;5386768;26;20007;-78
2024/04/23 02:44:33;;;;;;;0.20;0.00;;;;;;;;;;5390233;26;19995;-79
2024/04/23 02:46:59;;;;;;;0.20;0.10;;;;;;;;;;5386979;26;20005;-76
2024/04/23 02:49:25;;;;;;;0.30;0.22;;;;;;;;;;5364044;26;20000;-79
2024/04/23 02:52:11;;;;;;;0.20;0.10;;;;;;;;;;5347029;26;20007;-78
2024/04/23 02:54:38;;;;;;;0.20;0.10;;;;;;;;;;5363203;26;20000;-78
2024/04/23 02:57:04;;;;;;;0.30;0.28;;;;;;;;;;5391729;26;20030;-79
2024/04/23 02:59:30;;;;;;;0.22;0.13;;;;;;;;;;5393748;26;20437;-78
2024/04/23 03:02:06;;;;;;;0.20;0.10;;;;;;;;;;5392326;26;20011;-78
2024/04/23 03:04:32;;;;;;;0.20;0.00;;;;;;;;;;5360828;26;20015;-78
2024/04/23 03:06:59;;;;;;;0.20;0.10;;;;;;;;;;5388827;26;20015;-79
2024/04/23 03:09:45;;;;;;;0.20;0.10;;;;;;;;;;5363132;26;20005;-76
2024/04/23 03:12:11;;;;;;;0.20;0.10;;;;;;;;;;5366694;26;19999;-79
2024/04/23 03:14:37;;;;;;;0.20;0.10;;;;;;;;;;5364636;26;20007;-78
2024/04/23 03:17:04;;;;;;;0.20;0.10;;;;;;;;;;5360219;26;20007;-79
2024/04/23 03:19:50;;;;;;;0.20;0.10;;;;;;;;;;5365286;26;20447;-78
2024/04/23 03:22:16;;;;;;;0.20;0.10;;;;;;;;;;5382049;26;19996;-78
2024/04/23 03:24:42;;;;;;;0.20;0.10;;;;;;;;;;5385804;26;20445;-79
2024/04/23 03:27:08;;;;;;;0.20;0.10;;;;;;;;;;5363211;26;20500;-78
2024/04/23 03:29:34;;;;;;;0.20;0.10;;;;;;;;;;5371114;26;20012;-77
2024/04/23 03:32:01;;;;;;;0.20;0.10;;;;;;;;;;5361891;26;20008;-79
2024/04/23 03:34:44;;;;;;;0.20;0.10;;;;;;;;;;5364352;26;20048;-80
2024/04/23 03:37:10;;;;;;;0.20;0.10;;;;;;;;;;5359005;26;20011;-79
2024/04/23 03:39:56;;;;;;;0.20;0.03;;;;;;;;;;5347418;26;20044;-79
2024/04/23 03:42:22;;;;;;;0.63;0.63;;;;;;;;;;5390572;26;20023;-79
2024/04/23 03:44:49;;;;;;;0.20;0.00;;;;;;;;;;5368167;26;20086;-79
2024/04/23 03:47:16;;;;;;;0.20;0.10;;;;;;;;;;5392469;26;20073;-77
2024/04/23 03:50:02;;;;;;;0.20;0.00;;;;;;;;;;5366790;26;20008;-79
2024/04/23 03:52:28;;;;;;;0.20;0.10;;;;;;;;;;5362830;26;20012;-79
2024/04/23 03:55:00;;;;;;;0.20;0.10;;;;;;;;;;5372521;26;20004;-80
2024/04/23 03:57:26;;;;;;;0.20;0.10;;;;;;;;;;5394465;26;20003;-79
2024/04/23 04:00:12;;;;;;;0.20;0.10;;;;;;;;;;5341424;26;20063;-79
2024/04/23 04:08:21;;;;;;;0.20;0.10;;;;;;;;;;5391608;26;20016;-79
2024/04/23 04:11:08;;;;;;;0.20;0.10;;;;;;;;;;5338928;26;20333;-79
2024/04/23 04:13:39;;;;;;;0.20;0.10;;;;;;;;;;5365504;26;19996;-79
2024/04/23 04:16:06;;;;;;;0.20;0.10;;;;;;;;;;5354794;26;20019;-79
2024/04/23 04:18:52;;;;;;;0.20;0.10;;;;;;;;;;5372486;26;20016;-79
2024/04/23 04:21:18;;;;;;;0.20;0.10;;;;;;;;;;5365208;26;20110;-79
2024/04/23 04:23:45;;;;;;;0.20;0.10;;;;;;;;;;5387370;26;20014;-79
2024/04/23 04:26:12;;;;;;;0.20;0.10;;;;;;;;;;5363408;26;20076;-79
2024/04/23 04:28:44;;;;;;;0.25;0.20;;;;;;;;;;5389642;26;20026;-80
2024/04/23 04:31:12;;;;;;;0.20;0.08;;;;;;;;;;5390217;26;20008;-80
2024/04/23 04:33:38;;;;;;;0.30;0.17;;;;;;;;;;5363403;26;20055;-79
2024/04/23 04:36:05;;;;;;;0.20;0.10;;;;;;;;;;5389104;26;20682;-80
2024/04/23 04:38:31;;;;;;;0.20;0.00;;;;;;;;;;5389408;26;20009;-80
2024/04/23 04:40:58;;;;;;;0.20;0.10;;;;;;;;;;5382211;26;20003;-79
2024/04/23 04:43:24;;;;;;;0.40;0.38;;;;;;;;;;5390818;26;20034;-79
2024/04/23 04:45:50;;;;;;;0.20;0.10;;;;;;;;;;5389039;26;20004;-79
2024/04/23 04:48:16;;;;;;;0.20;0.10;;;;;;;;;;5391355;26;20008;-79
2024/04/23 04:50:43;;;;;;;0.40;0.20;;;;;;;;;;5386291;26;20447;-80
2024/04/23 04:53:09;;;;;;;0.20;0.10;;;;;;;;;;5391665;26;20125;-80
2024/04/23 04:55:35;;;;;;;0.20;0.10;;;;;;;;;;5386746;26;20369;-79
2024/04/23 04:58:01;;;;;;;0.20;0.10;;;;;;;;;;5396757;26;20001;-79
2024/04/23 05:00:27;;;;;;;0.20;0.10;;;;;;;;;;5388478;26;19999;-80
2024/04/23 05:02:53;;;;;;;0.20;0.10;;;;;;;;;;5385690;26;20036;-79
2024/04/23 05:05:19;;;;;;;0.20;0.10;;;;;;;;;;5407887;21;19996;-84
2024/04/23 05:07:46;;;;;;;0.20;0.10;;;;;;;;;;5394706;26;20014;-83
2024/04/23 05:10:12;;;;;;;0.38;0.38;;;;;;;;;;5357598;26;20003;-85
2024/04/23 05:12:38;;;;;;;0.20;0.10;;;;;;;;;;5393515;26;20328;-84
2024/04/23 05:15:05;;;;;;;0.20;0.10;;;;;;;;;;5388602;26;20686;-84
2024/04/23 05:17:31;;;;;;;0.28;0.17;;;;;;;;;;5396694;26;20077;-84
2024/04/23 05:19:59;;;;;;;0.30;0.30;;;;;;;;;;5347200;26;20342;-85
2024/04/23 05:22:26;;;;;;;0.20;0.10;;;;;;;;;;5365641;26;20001;-84
2024/04/23 05:24:52;;;;;;;0.20;0.10;;;;;;;;;;5368359;26;20000;-84
2024/04/23 05:27:18;;;;;;;0.20;0.10;;;;;;;;;;5330386;26;20016;-84
2024/04/23 05:29:51;;;;;;;0.20;0.10;;;;;;;;;;5372922;26;20000;-85
2024/04/23 05:35:02;;;;;;;0.80;0.80;;;;;;;;;;5364182;26;20105;-84
2024/04/23 05:37:28;;;;;;;0.20;0.10;;;;;;;;;;5369947;26;20008;-84
2024/04/23 05:40:03;;;;;;;0.20;0.15;;;;;;;;;;5394199;26;20287;-83
2024/04/23 05:42:29;;;;;;;0.20;0.10;;;;;;;;;;5366498;26;20004;-84
2024/04/23 05:44:55;;;;;;;0.20;0.10;;;;;;;;;;5366151;26;20000;-84
2024/04/23 05:47:22;;;;;;;0.43;0.43;;;;;;;;;;5366425;26;20012;-83
2024/04/23 05:50:07;;;;;;;0.20;0.10;;;;;;;;;;5342621;26;19996;-83
2024/04/23 05:52:52;;;;;;;0.20;0.03;;;;;;;;;;5367976;26;20000;-84
2024/04/23 05:55:34;;;;;;;0.20;0.10;;;;;;;;;;5401114;26;20004;-83
2024/04/23 05:58:01;;;;;;;;;;;;;;;;;;5365274;26;20394;-83
2024/04/23 06:00:27;;;;;;;0.22;0.13;;;;;;;;;;5337901;26;20457;-83
2024/04/23 06:02:53;;;;;;;0.90;0.15;;;;;;;;;;5370051;26;20329;-83
2024/04/23 06:05:19;;;;;;;0.20;0.10;;;;;;;;;;5343446;26;20015;-82
2024/04/23 06:07:45;;;;;;;0.20;0.10;;;;;;;;;;5355934;26;20011;-82
2024/04/23 06:10:11;;;;;;;0.20;0.00;;;;;;;;;;5366372;26;20000;-83
2024/04/23 06:12:38;;;;;;;0.20;0.10;;;;;;;;;;5393703;26;20004;-83
2024/04/23 06:15:04;;;;;;;0.20;0.10;;;;;;;;;;5337372;26;20596;-83
2024/04/23 06:17:34;;;;;;;0.20;0.10;;;;;;;;;;5333753;26;20007;-83
2024/04/23 06:20:01;;;;;;;0.20;0.10;;;;;;;;;;5377647;26;20037;-82
2024/04/23 06:22:28;;;;;;;0.20;0.10;;;;;;;;;;5358975;26;20001;-83
2024/04/23 06:24:55;;;;;;;0.20;0.00;;;;;;;;;;5339701;26;20369;-83
2024/04/23 06:27:23;;;;;;;0.20;0.00;;;;;;;;;;5374293;26;20075;-82
2024/04/23 06:29:53;;;;;;;0.20;0.10;;;;;;;;;;5376711;26;20449;-82
2024/04/23 06:32:20;;;;;;;0.20;0.10;;;;;;;;;;5341558;26;20078;-82
2024/04/23 06:34:46;;;;;;;0.20;0.10;;;;;;;;;;5330063;26;20373;-82
2024/04/23 06:37:13;;;;;;;0.20;0.10;;;;;;;;;;5365932;26;20005;-82
2024/04/23 06:39:39;;;;;;;0.20;0.10;;;;;;;;;;5370087;26;20015;-82
2024/04/23 06:42:05;;;;;;;0.20;0.10;;;;;;;;;;5348278;26;19996;-82
2024/04/23 06:44:31;;;;;;;0.20;0.10;;;;;;;;;;5370667;26;20090;-82
2024/04/23 06:46:58;;;;;;;0.20;0.10;;;;;;;;;;5364693;26;20011;-81
2024/04/23 06:49:24;;;;;;;0.20;0.10;;;;;;;;;;5366461;26;20008;-81
2024/04/23 06:51:51;;;;;;;0.20;0.10;;;;;;;;;;5332084;26;20008;-81
2024/04/23 06:54:17;;;;;;;0.20;0.10;;;;;;;;;;5384823;26;20008;-81
2024/04/23 06:56:43;;;;;;;0.20;0.10;;;;;;;;;;5371872;26;19996;-80
2024/04/23 06:59:09;;;;;;;0.20;0.05;;;;;;;;;;5373520;26;20073;-81
2024/04/23 07:01:36;;;;;;;0.20;0.10;;;;;;;;;;5343269;26;20063;-82
2024/04/23 07:04:02;;;;;;;0.20;0.10;;;;;;;;;;5378886;26;20047;-81
2024/04/23 07:06:28;;;;;;;0.20;0.10;;;;;;;;;;5376182;26;19997;-81
2024/04/23 07:08:55;;;;;;;0.20;0.15;;;;;;;;;;5344296;26;20008;-81
2024/04/23 07:11:21;;;;;;;0.20;0.10;;;;;;;;;;5376584;26;20702;-81
2024/04/23 07:13:47;;;;;;;0.20;0.10;;;;;;;;;;5375587;26;20000;-80
2024/04/23 07:16:14;;;;;;;0.20;0.10;;;;;;;;;;5377651;26;19996;-81
2024/04/23 07:18:40;;;;;;;0.20;0.05;;;;;;;;;;5341549;26;20497;-83
2024/04/23 07:21:07;;;;;;;0.20;0.10;;;;;;;;;;5371049;26;20012;-81
2024/04/23 07:23:33;;;;;;;0.25;0.25;;;;;;;;;;5338899;26;20393;-81
2024/04/23 07:25:59;;;;;;;0.20;0.05;;;;;;;;;;5342002;26;20055;-81
2024/04/23 07:28:25;;;;;;;0.20;0.10;;;;;;;;;;5372605;26;20012;-81
2024/04/23 07:30:52;;;;;;;0.30;0.20;;;;;;;;;;5374302;26;19996;-81
2024/04/23 07:33:19;;;;;;;1.42;1.13;;;;;;;;;;5331706;26;19996;-81
2024/04/23 07:35:45;;;;;;;0.20;0.10;;;;;;;;;;5373239;26;20340;-82
2024/04/23 07:38:12;;;;;;;0.20;0.10;;;;;;;;;;5332493;26;20015;-81
2024/04/23 07:40:39;;;;;;;0.20;0.10;;;;;;;;;;5379043;26;20004;-81
2024/04/23 07:43:05;;;;;;;0.20;0.10;;;;;;;;;;5368691;26;20001;-81
2024/04/23 07:45:34;;;;;;;0.20;0.10;;;;;;;;;;5333401;26;20000;-82
2024/04/23 07:48:01;;;;;;;0.20;0.10;;;;;;;;;;5373969;26;20004;-82
2024/04/23 07:50:27;;;;;;;0.20;0.10;;;;;;;;;;5375913;26;20019;-82
2024/04/23 07:52:53;;;;;;;0.40;0.30;;;;;;;;;;5334812;26;20008;-82
2024/04/23 07:55:19;;;;;;;0.20;0.00;;;;;;;;;;5370709;26;20082;-82
2024/04/23 07:57:49;;;;;;;0.20;0.10;;;;;;;;;;5341152;26;20058;-81
2024/04/23 08:00:16;;;;;;;0.20;0.10;;;;;;;;;;5367204;26;20016;-83
2024/04/23 08:02:45;;;;;;;0.47;0.40;;;;;;;;;;5342923;26;20012;-82
2024/04/23 08:05:11;;;;;;;0.20;0.10;;;;;;;;;;5366265;26;20012;-82
2024/04/23 08:07:38;;;;;;;0.20;0.13;;;;;;;;;;5372486;26;20419;-82
2024/04/23 08:10:05;;;;;;;0.20;0.10;;;;;;;;;;5337839;26;20020;-82
2024/04/23 08:12:31;;;;;;;0.20;0.10;;;;;;;;;;5395449;26;20468;-82
2024/04/23 08:14:57;;;;;;;0.20;0.10;;;;;;;;;;5367282;26;20004;-82
2024/04/23 08:17:23;;;;;;;0.20;0.10;;;;;;;;;;5363020;26;20001;-82
2024/04/23 08:19:49;;;;;;;0.20;0.10;;;;;;;;;;5329875;26;19997;-82
2024/04/23 08:22:16;;;;;;;0.20;0.10;;;;;;;;;;5343193;26;20358;-82
2024/04/23 08:24:42;;;;;;;0.20;0.10;;;;;;;;;;5348496;26;20011;-83
2024/04/23 08:27:08;;;;;;;0.20;0.10;;;;;;;;;;5367190;26;20018;-82
2024/04/23 08:29:35;;;;;;;0.20;0.10;;;;;;;;;;5366758;26;20115;-82
2024/04/23 08:32:01;;;;;;;0.20;0.17;;;;;;;;;;5357631;26;20000;-80
2024/04/23 08:34:27;;;;;;;1.67;0.25;;;;;;;;;;5357189;26;20008;-82
2024/04/23 08:36:54;;;;;;;0.20;0.10;;;;;;;;;;5372434;26;20126;-81
2024/04/23 08:39:20;;;;;;;0.20;0.10;;;;;;;;;;5375386;26;20019;-82
2024/04/23 08:41:47;;;;;;;0.20;0.10;;;;;;;;;;5375226;26;20011;-82
2024/04/23 08:44:14;;;;;;;0.20;0.10;;;;;;;;;;5338463;26;19996;-81
2024/04/23 08:46:41;;;;;;;0.20;0.10;;;;;;;;;;5379972;26;20011;-81
2024/04/23 08:49:07;;;;;;;0.20;0.00;;;;;;;;;;5371798;26;19996;-83
2024/04/23 08:51:34;;;;;;;0.20;0.10;;;;;;;;;;5374096;26;20443;-82
2024/04/23 08:54:00;;;;;;;0.30;0.20;;;;;;;;;;5365433;26;20015;-83
2024/04/23 08:56:30;;;;;;;0.20;0.10;;;;;;;;;;5371419;26;20000;-83
2024/04/23 08:58:56;;;;;;;0.20;0.10;;;;;;;;;;5374299;26;20372;-82
2024/04/23 09:01:29;;;;;;;0.20;0.10;;;;;;;;;;5378518;26;20516;-82
2024/04/23 09:03:59;;;;;;;0.20;0.10;;;;;;;;;;5367853;26;19996;-81
2024/04/23 09:06:26;;;;;;;0.20;0.10;;;;;;;;;;5370607;26;20000;-81
2024/04/23 09:08:54;;;;;;;0.20;0.10;;;;;;;;;;5368440;26;20005;-81
2024/04/23 09:11:20;;;;;;;0.20;0.10;;;;;;;;;;5369068;26;20004;-81
2024/04/23 09:13:47;;;;;;;0.40;0.28;;;;;;;;;;5366923;26;20828;-80
2024/04/23 09:16:13;;;;;;;0.20;0.03;;;;;;;;;;5371616;26;20000;-80
2024/04/23 09:18:39;;;;;;;0.20;0.10;;;;;;;;;;5362053;26;20535;-82
2024/04/23 09:21:05;;;;;;;0.20;0.10;;;;;;;;;;5370039;26;20015;-82
2024/04/23 09:23:32;;;;;;;0.20;0.20;;;;;;;;;;5373189;26;20004;-82
2024/04/23 09:26:01;;;;;;;0.20;0.10;;;;;;;;;;5370777;26;19996;-82
2024/04/23 09:28:31;;;;;;;0.20;0.10;;;;;;;;;;5368378;26;20007;-82
2024/04/23 09:30:58;;;;;;;0.20;0.05;;;;;;;;;;5371576;26;19997;-81
2024/04/23 09:33:25;;;;;;;0.20;0.10;;;;;;;;;;5365255;26;20403;-81
2024/04/23 09:36:04;;;;;;;0.20;0.00;;;;;;;;;;5368530;26;20457;-80
2024/04/23 09:38:42;;;;;;;0.20;0.10;;;;;;;;;;5371497;26;20077;-82
2024/04/23 09:41:09;;;;;;;0.20;0.10;;;;;;;;;;5332594;26;20000;-80
2024/04/23 09:43:38;;;;;;;0.20;0.10;;;;;;;;;;5370249;26;20010;-79
2024/04/23 09:46:05;;;;;;;0.20;0.10;;;;;;;;;;5366489;26;20051;-79
2024/04/23 09:48:31;;;;;;;0.20;0.10;;;;;;;;;;5378133;26;20017;-80
2024/04/23 09:51:05;;;;;;;0.20;0.10;;;;;;;;;;5371803;26;20082;-80
2024/04/23 09:53:35;;;;;;;0.32;0.20;;;;;;;;;;5376441;26;20000;-81
2024/04/23 09:56:02;;;;;;;0.20;0.10;;;;;;;;;;5372102;26;20304;-82
2024/04/23 09:58:28;;;;;;;0.20;0.10;;;;;;;;;;5369856;26;20072;-81
2024/04/23 10:00:58;;;;;;;0.40;0.30;;;;;;;;;;5363722;26;20006;-84
2024/04/23 10:03:24;;;;;;;0.20;0.10;;;;;;;;;;5362505;26;20022;-82
2024/04/23 10:05:51;;;;;;;0.20;0.00;;;;;;;;;;5367368;26;20015;-82
2024/04/23 10:08:36;;;;;;;0.20;0.10;;;;;;;;;;5370469;26;20448;-81
2024/04/23 10:11:03;;;;;;;0.20;0.10;;;;;;;;;;5364154;26;20390;-82
2024/04/23 10:13:37;;;;;;;0.20;0.10;;;;;;;;;;5363227;26;20001;-84
2024/04/23 10:16:09;;;;;;;0.20;0.10;;;;;;;;;;5339578;26;20106;-82
2024/04/23 10:18:40;;;;;;;0.20;0.10;;;;;;;;;;5365877;26;20337;-81
2024/04/23 10:21:08;;;;;;;0.20;0.10;;;;;;;;;;5365854;26;20020;-80
2024/04/23 10:23:36;;;;;;;0.20;0.00;;;;;;;;;;5371866;26;20040;-83
2024/04/23 10:26:02;;;;;;;0.20;0.00;;;;;;;;;;5374766;26;20394;-85
2024/04/23 10:28:31;;;;;;;0.20;0.00;;;;;;;;;;5378298;26;20011;-82
2024/04/23 10:30:58;;;;;;;0.20;0.10;;;;;;;;;;5405403;26;20473;-83
2024/04/23 10:33:30;;;;;;;0.20;0.10;;;;;;;;;;5365743;26;20348;-82
2024/04/23 10:35:57;;;;;;;;;;;;;;;;;;5370035;26;20437;-81
2024/04/23 10:38:24;;;;;;;0.20;0.00;;;;;;;;;;5364690;26;20105;-83
2024/04/23 10:40:54;;;;;;;0.20;0.10;;;;;;;;;;5366356;26;19996;-81
2024/04/23 10:43:20;;;;;;;0.20;0.10;;;;;;;;;;5365961;26;20471;-82
2024/04/23 10:45:46;;;;;;;0.20;0.20;;;;;;;;;;5394712;26;19996;-82
2024/04/23 10:48:13;;;;;;;0.20;0.10;;;;;;;;;;5335301;26;20011;-82
2024/04/23 10:50:39;;;;;;;0.20;0.10;;;;;;;;;;5335916;26;20000;-82
2024/04/23 10:53:05;;;;;;;0.20;0.10;;;;;;;;;;5378052;26;20670;-82
2024/04/23 10:55:31;;;;;;;0.20;0.10;;;;;;;;;;5371172;26;20455;-82
2024/04/23 10:57:58;;;;;;;0.20;0.10;;;;;;;;;;5335642;26;20007;-80
2024/04/23 11:00:33;;;;;;;0.20;0.10;;;;;;;;;;5373879;26;20002;-82
2024/04/23 11:02:59;;;;;;;0.20;0.10;;;;;;;;;;5368024;26;20024;-82
2024/04/23 11:08:06;;;;;;;0.70;0.70;;;;;;;;;;5391047;26;20056;-82
2024/04/23 11:10:47;;;;;;;0.20;0.10;;;;;;;;;;5355651;26;20102;-81
2024/04/23 11:13:24;;;;;;;0.20;0.10;;;;;;;;;;5398794;26;20051;-82
2024/04/23 11:15:50;;;;;;;0.20;0.10;;;;;;;;;;5363444;26;20622;-81
2024/04/23 11:18:20;;;;;;;0.20;0.08;;;;;;;;;;5352551;26;20011;-80
2024/04/23 11:20:47;;;;;;;0.40;0.40;;;;;;;;;;5393041;26;20012;-79
2024/04/23 11:23:15;;;;;;;0.20;0.03;;;;;;;;;;5398815;26;20015;-79
2024/04/23 11:25:43;;;;;;;0.20;0.10;;;;;;;;;;5388499;26;20005;-82
2024/04/23 11:28:09;;;;;;;0.20;0.00;;;;;;;;;;5385395;26;20011;-82
2024/04/23 11:30:35;;;;;;;0.20;0.10;;;;;;;;;;5368122;26;20332;-83
2024/04/23 11:33:03;;;;;;;0.30;0.10;;;;;;;;;;5379107;26;19995;-83
2024/04/23 11:35:33;;;;;;;0.20;0.10;;;;;;;;;;5369954;26;19999;-81
2024/04/23 11:38:01;;;;;;;0.20;0.20;;;;;;;;;;5360953;26;20010;-84
2024/04/23 11:40:27;;;;;;;0.20;0.08;;;;;;;;;;5400160;26;20007;-85
2024/04/23 11:42:53;;;;;;;0.20;0.10;;;;;;;;;;5372741;26;19999;-82
2024/04/23 11:45:19;;;;;;;0.20;0.10;;;;;;;;;;5388073;26;20447;-83
2024/04/23 11:47:51;;;;;;;0.20;0.10;;;;;;;;;;5366256;26;20014;-79
2024/04/23 11:50:17;;;;;;;0.20;0.00;;;;;;;;;;5359392;26;20013;-80
2024/04/23 11:52:43;;;;;;;0.20;0.10;;;;;;;;;;5391922;26;20015;-79
2024/04/23 11:55:09;;;;;;;0.20;0.10;;;;;;;;;;5364245;26;20014;-83
2024/04/23 11:57:38;;;;;;;0.20;0.10;;;;;;;;;;5395319;26;20090;-80
2024/04/23 12:00:05;;;;;;;0.20;0.10;;;;;;;;;;5402130;26;20008;-81
2024/04/23 12:02:31;;;;;;;0.20;0.00;;;;;;;;;;5388675;26;20018;-82
2024/04/23 12:04:58;;;;;;;0.20;0.10;;;;;;;;;;5368827;26;20019;-83
2024/04/23 12:07:25;;;;;;;0.47;0.15;;;;;;;;;;5365146;26;20053;-82
2024/04/23 12:09:51;;;;;;;0.20;0.10;;;;;;;;;;5395008;26;20042;-84
2024/04/23 12:12:24;;;;;;;0.20;0.10;;;;;;;;;;5385991;26;20009;-80
2024/04/23 12:14:51;;;;;;;0.20;0.10;;;;;;;;;;5370911;26;20359;-83
2024/04/23 12:17:17;;;;;;;0.20;0.10;;;;;;;;;;5362700;26;20000;-83
2024/04/23 12:19:46;;;;;;;0.20;0.10;;;;;;;;;;5393979;26;19999;-79
2024/04/23 12:22:18;;;;;;;0.20;0.10;;;;;;;;;;5386539;26;20008;-81
2024/04/23 12:24:45;;;;;;;0.20;0.10;;;;;;;;;;5378871;26;19999;-82
2024/04/23 12:27:11;;;;;;;0.20;0.20;;;;;;;;;;5378883;26;21327;-80
2024/04/23 12:29:38;;;;;;;0.20;0.10;;;;;;;;;;5364940;26;20014;-83
2024/04/23 12:32:04;;;;;;;0.20;0.05;;;;;;;;;;5369457;26;20015;-82
2024/04/23 12:34:31;;;;;;;0.20;0.10;;;;;;;;;;5389886;26;20000;-82
2024/04/23 12:36:57;;;;;;;0.20;0.10;;;;;;;;;;5364913;26;20000;-81
2024/04/23 12:39:23;;;;;;;0.20;0.10;;;;;;;;;;5384937;26;20015;-81
2024/04/23 12:41:50;;;;;;;0.20;0.10;;;;;;;;;;5392150;26;20000;-81
2024/04/23 12:44:17;;;;;;;0.20;0.10;;;;;;;;;;5384938;26;20344;-83
2024/04/23 12:46:43;;;;;;;0.20;0.10;;;;;;;;;;5360291;26;20015;-84
2024/04/23 12:49:10;;;;;;;0.20;0.10;;;;;;;;;;5355952;26;20018;-82
2024/04/23 12:51:36;;;;;;;0.20;0.08;;;;;;;;;;5361148;26;20003;-79
2024/04/23 12:54:08;;;;;;;0.30;0.30;;;;;;;;;;5382964;26;20000;-81
2024/04/23 12:56:38;;;;;;;0.20;0.10;;;;;;;;;;5391372;26;20356;-80
2024/04/23 12:59:05;;;;;;;0.57;0.22;;;;;;;;;;5392305;26;20571;-81
2024/04/23 13:01:32;;;;;;;0.20;0.05;;;;;;;;;;5396618;26;20000;-82
2024/04/23 13:03:58;;;;;;;0.25;0.25;;;;;;;;;;5374533;26;20025;-83
2024/04/23 13:06:24;;;;;;;0.20;0.10;;;;;;;;;;5367942;26;20067;-82
2024/04/23 13:08:50;;;;;;;0.20;0.10;;;;;;;;;;5390168;26;20019;-81
2024/04/23 13:11:18;;;;;;;0.20;0.10;;;;;;;;;;5369829;26;20001;-80
2024/04/23 13:13:44;;;;;;;0.20;0.10;;;;;;;;;;5396140;26;20000;-84
2024/04/23 13:16:10;;;;;;;0.20;0.10;;;;;;;;;;5396220;26;20340;-79
2024/04/23 13:18:37;;;;;;;0.20;0.10;;;;;;;;;;5367047;26;20543;-79
2024/04/23 13:21:03;;;;;;;0.63;0.35;;;;;;;;;;5393162;26;20008;-81
2024/04/23 13:23:29;;;;;;;0.95;0.32;;;;;;;;;;5365044;26;19995;-79
2024/04/23 13:25:56;;;;;;;0.20;0.10;;;;;;;;;;5367803;26;20049;-79
2024/04/23 13:28:22;;;;;;;0.30;0.10;;;;;;;;;;5364162;26;20456;-78
2024/04/23 13:30:55;;;;;;;0.50;0.17;;;;;;;;;;5397292;26;19999;-79
2024/04/23 13:33:21;;;;;;;0.25;0.25;;;;;;;;;;5366027;26;19995;-80
2024/04/23 13:35:47;;;;;;;0.20;0.10;;;;;;;;;;5390194;26;19996;-79
2024/04/23 13:38:14;;;;;;;0.20;0.10;;;;;;;;;;5373834;26;20022;-82
2024/04/23 13:40:41;;;;;;;0.68;0.43;;;;;;;;;;5400372;26;19996;-80
2024/04/23 13:43:07;;;;;;;0.20;0.10;;;;;;;;;;5358302;26;20007;-82
2024/04/23 13:45:37;;;;;;;0.20;0.10;;;;;;;;;;5385077;26;19995;-79
2024/04/23 13:48:03;;;;;;;0.20;0.10;;;;;;;;;;5386650;26;20188;-79
2024/04/23 13:50:30;;;;;;;0.20;0.10;;;;;;;;;;5369839;26;20371;-80
2024/04/23 13:52:56;;;;;;;0.20;0.10;;;;;;;;;;5357122;26;20019;-80
2024/04/23 13:55:22;;;;;;;0.20;0.10;;;;;;;;;;5365235;26;20080;-80
2024/04/23 13:57:48;;;;;;;0.20;0.10;;;;;;;;;;5398826;26;20079;-80
2024/04/23 14:00:15;;;;;;;0.20;0.10;;;;;;;;;;5352820;26;19999;-81
2024/04/23 14:02:41;;;;;;;0.20;0.10;;;;;;;;;;5383561;26;20520;-79
2024/04/23 14:05:07;;;;;;;0.20;0.10;;;;;;;;;;5359368;26;20039;-82
2024/04/23 14:07:35;;;;;;;0.20;0.00;;;;;;;;;;5364025;26;20011;-80
2024/04/23 14:10:01;;;;;;;0.20;0.10;;;;;;;;;;5364573;26;20474;-80
2024/04/23 14:12:28;;;;;;;0.20;0.00;;;;;;;;;;5379858;26;20018;-78
2024/04/23 14:14:55;;;;;;;0.20;0.05;;;;;;;;;;5390057;26;20011;-83
2024/04/23 14:17:22;;;;;;;0.20;0.10;;;;;;;;;;5386551;26;20011;-79
2024/04/23 14:19:48;;;;;;;0.20;0.10;;;;;;;;;;5390865;26;20008;-80
2024/04/23 14:22:16;;;;;;;0.20;0.10;;;;;;;;;;5367249;26;20050;-85
2024/04/23 14:24:42;;;;;;;0.20;0.20;;;;;;;;;;5383474;26;20000;-78
2024/04/23 14:27:11;;;;;;;0.20;0.10;;;;;;;;;;5387844;26;20597;-80
2024/04/23 14:29:40;;;;;;;0.20;0.00;;;;;;;;;;5370977;26;20010;-81
2024/04/23 14:32:08;;;;;;;0.20;0.10;;;;;;;;;;5361524;26;20012;-80
2024/04/23 14:34:35;;;;;;;0.20;0.10;;;;;;;;;;5363123;26;20000;-83
2024/04/23 14:37:01;;;;;;;0.20;0.00;;;;;;;;;;5385357;26;20015;-81
2024/04/23 14:39:28;;;;;;;0.20;0.08;;;;;;;;;;5386837;26;19999;-81
2024/04/23 14:41:56;;;;;;;0.20;0.10;;;;;;;;;;5356931;26;20480;-82
2024/04/23 14:44:23;;;;;;;0.32;0.10;;;;;;;;;;5391208;26;20039;-79
2024/04/23 14:46:49;;;;;;;0.20;0.10;;;;;;;;;;5394122;26;20465;-80
2024/04/23 14:49:15;;;;;;;0.20;0.10;;;;;;;;;;5371385;26;19995;-81
2024/04/23 14:51:41;;;;;;;0.20;0.10;;;;;;;;;;5382550;26;20022;-82
2024/04/23 14:54:07;;;;;;;0.20;0.10;;;;;;;;;;5388896;26;19997;-82
2024/04/23 14:56:33;;;;;;;0.20;0.00;;;;;;;;;;5366857;26;20004;-80
2024/04/23 14:59:00;;;;;;;0.20;0.10;;;;;;;;;;5365516;26;20007;-81